KOXC/OXC METAR and TAF weather

Enter ICAO airport designator
Station Type Date Time Source
KOXC METAR 2021/04/14 18:51 UTC NOAA

KOXC 141851Z 13013G19KT 10SM BKN075 OVC090 19/06 A2994 RMK AO2 SLP149 T01890061


Station Type Date Time Source
KOXC Decoded METAR 2021/04/14 18:51 UTC NOAA

Oxford, Waterbury-Oxford Airport, CT, United States (KOXC) 41-29N 073-08W
Apr 14, 2021 - 02:51 PM EDT / 2021.04.14 1851 UTC
Wind: from the SE (130 degrees) at 15 MPH (13 KT) gusting to 22 MPH (19 KT):0
Visibility: 10 mile(s):0
Sky conditions: overcast
Temperature: 66.0 F (18.9 C)
Dew Point: 43.0 F (6.1 C)
Relative Humidity: 43%
Pressure (altimeter): 29.94 in. Hg (1013 hPa)
ob: KOXC 141851Z 13013G19KT 10SM BKN075 OVC090 19/06 A2994 RMK AO2 SLP149 T01890061
cycle: 19

Station Type Date Time Source
KOXC TAF UTC NOAA

Error!

Example: see airport list